sensor_id;sensor_type;location;lat;lon;timestamp;pressure;altitude;pressure_sealevel;temperature;humidity
51099;BME280;37146;48.210;16.234;2023-01-28T00:00:27;99192.84;;;-2.47;100.00
51099;BME280;37146;48.210;16.234;2023-01-28T00:02:52;99192.84;;;-2.50;100.00
51099;BME280;37146;48.210;16.234;2023-01-28T00:05:18;99193.72;;;-2.54;100.00
51099;BME280;37146;48.210;16.234;2023-01-28T00:07:43;99198.09;;;-2.47;100.00
51099;BME280;37146;48.210;16.234;2023-01-28T00:10:08;99194.59;;;-2.46;100.00
51099;BME280;37146;48.210;16.234;2023-01-28T00:12:34;99204.19;;;-2.46;100.00
51099;BME280;37146;48.210;16.234;2023-01-28T00:14:59;99193.75;;;-2.45;100.00
51099;BME280;37146;48.210;16.234;2023-01-28T00:17:24;99189.38;;;-2.44;100.00
51099;BME280;37146;48.210;16.234;2023-01-28T00:19:49;99193.69;;;-2.51;100.00
51099;BME280;37146;48.210;16.234;2023-01-28T00:22:15;99199.81;;;-2.52;100.00
51099;BME280;37146;48.210;16.234;2023-01-28T00:24:40;99204.22;;;-2.43;100.00
51099;BME280;37146;48.210;16.234;2023-01-28T00:27:05;99198.09;;;-2.49;100.00
51099;BME280;37146;48.210;16.234;2023-01-28T00:29:31;99200.72;;;-2.49;100.00
51099;BME280;37146;48.210;16.234;2023-01-28T00:31:56;99193.78;;;-2.37;100.00
51099;BME280;37146;48.210;16.234;2023-01-28T00:34:21;99195.50;;;-2.39;100.00
51099;BME280;37146;48.210;16.234;2023-01-28T00:36:47;99198.06;;;-2.53;100.00
51099;BME280;37146;48.210;16.234;2023-01-28T00:39:21;99190.22;;;-2.56;100.00
51099;BME280;37146;48.210;16.234;2023-01-28T00:41:46;99184.97;;;-2.52;100.00
51099;BME280;37146;48.210;16.234;2023-01-28T00:44:11;99187.63;;;-2.47;100.00
51099;BME280;37146;48.210;16.234;2023-01-28T00:46:37;99190.25;;;-2.42;100.00
51099;BME280;37146;48.210;16.234;2023-01-28T00:49:02;99188.47;;;-2.46;100.00
51099;BME280;37146;48.210;16.234;2023-01-28T00:51:27;99189.31;;;-2.52;100.00
51099;BME280;37146;48.210;16.234;2023-01-28T00:53:52;99177.16;;;-2.44;100.00
51099;BME280;37146;48.210;16.234;2023-01-28T00:56:18;99174.56;;;-2.39;100.00
51099;BME280;37146;48.210;16.234;2023-01-28T00:58:43;99177.16;;;-2.38;100.00
51099;BME280;37146;48.210;16.234;2023-01-28T01:01:10;99185.03;;;-2.36;100.00
51099;BME280;37146;48.210;16.234;2023-01-28T01:03:36;99184.13;;;-2.40;100.00
51099;BME280;37146;48.210;16.234;2023-01-28T01:06:02;99186.75;;;-2.46;100.00
51099;BME280;37146;48.210;16.234;2023-01-28T01:08:27;99180.63;;;-2.42;100.00
51099;BME280;37146;48.210;16.234;2023-01-28T01:10:59;99192.03;;;-2.38;100.00
51099;BME280;37146;48.210;16.234;2023-01-28T01:13:25;99198.97;;;-2.43;100.00
51099;BME280;37146;48.210;16.234;2023-01-28T01:15:50;99184.13;;;-2.49;100.00
51099;BME280;37146;48.210;16.234;2023-01-28T01:18:24;99199.84;;;-2.46;100.00
51099;BME280;37146;48.210;16.234;2023-01-28T01:20:50;99205.94;;;-2.47;100.00
51099;BME280;37146;48.210;16.234;2023-01-28T01:23:15;99199.84;;;-2.46;100.00
51099;BME280;37146;48.210;16.234;2023-01-28T01:25:40;99191.09;;;-2.51;100.00
51099;BME280;37146;48.210;16.234;2023-01-28T01:28:06;99205.09;;;-2.46;100.00
51099;BME280;37146;48.210;16.234;2023-01-28T01:30:31;99194.59;;;-2.49;100.00
51099;BME280;37146;48.210;16.234;2023-01-28T01:32:56;99196.34;;;-2.48;100.00
51099;BME280;37146;48.210;16.234;2023-01-28T01:35:22;99198.97;;;-2.48;100.00
51099;BME280;37146;48.210;16.234;2023-01-28T01:37:47;99201.63;;;-2.40;100.00
51099;BME280;37146;48.210;16.234;2023-01-28T01:40:12;99206.81;;;-2.42;100.00
51099;BME280;37146;48.210;16.234;2023-01-28T01:42:38;99209.44;;;-2.46;100.00
51099;BME280;37146;48.210;16.234;2023-01-28T01:45:04;99202.44;;;-2.47;100.00
51099;BME280;37146;48.210;16.234;2023-01-28T01:50:13;99206.84;;;-2.45;100.00
51099;BME280;37146;48.210;16.234;2023-01-28T01:52:40;99205.91;;;-2.53;100.00
51099;BME280;37146;48.210;16.234;2023-01-28T01:55:08;99214.69;;;-2.45;100.00
51099;BME280;37146;48.210;16.234;2023-01-28T01:57:35;99216.44;;;-2.42;100.00
51099;BME280;37146;48.210;16.234;2023-01-28T02:00:00;99212.94;;;-2.46;100.00
51099;BME280;37146;48.210;16.234;2023-01-28T02:02:34;99212.94;;;-2.46;100.00
51099;BME280;37146;48.210;16.234;2023-01-28T02:05:00;99214.66;;;-2.46;100.00
51099;BME280;37146;48.210;16.234;2023-01-28T02:07:26;99210.34;;;-2.43;100.00
51099;BME280;37146;48.210;16.234;2023-01-28T02:09:51;99213.81;;;-2.42;100.00
51099;BME280;37146;48.210;16.234;2023-01-28T02:12:18;99204.22;;;-2.42;100.00
51099;BME280;37146;48.210;16.234;2023-01-28T02:14:47;99202.50;;;-2.38;100.00
51099;BME280;37146;48.210;16.234;2023-01-28T02:17:14;99198.13;;;-2.44;100.00
51099;BME280;37146;48.210;16.234;2023-01-28T02:19:43;99206.81;;;-2.48;100.00
51099;BME280;37146;48.210;16.234;2023-01-28T02:27:23;99202.44;;;-2.49;100.00
51099;BME280;37146;48.210;16.234;2023-01-28T02:30:02;99204.19;;;-2.50;100.00
51099;BME280;37146;48.210;16.234;2023-01-28T02:32:32;99203.34;;;-2.49;100.00
51099;BME280;37146;48.210;16.234;2023-01-28T02:35:06;99199.84;;;-2.46;100.00
51099;BME280;37146;48.210;16.234;2023-01-28T02:37:52;99205.06;;;-2.51;100.00
51099;BME280;37146;48.210;16.234;2023-01-28T02:40:21;99209.41;;;-2.51;100.00
51099;BME280;37146;48.210;16.234;2023-01-28T02:42:48;99207.66;;;-2.55;100.00
51099;BME280;37146;48.210;16.234;2023-01-28T02:45:24;99200.69;;;-2.50;100.00
51099;BME280;37146;48.210;16.234;2023-01-28T02:48:10;99198.94;;;-2.51;100.00
51099;BME280;37146;48.210;16.234;2023-01-28T02:50:38;99194.56;;;-2.54;100.00
51099;BME280;37146;48.210;16.234;2023-01-28T02:56:03;99194.56;;;-2.52;100.00
51099;BME280;37146;48.210;16.234;2023-01-28T02:58:46;99200.69;;;-2.56;100.00
51099;BME280;37146;48.210;16.234;2023-01-28T03:01:17;99200.69;;;-2.55;100.00
51099;BME280;37146;48.210;16.234;2023-01-28T03:06:31;99198.06;;;-2.53;100.00
51099;BME280;37146;48.210;16.234;2023-01-28T03:08:59;99196.31;;;-2.51;100.00
51099;BME280;37146;48.210;16.234;2023-01-28T03:11:47;99201.56;;;-2.54;100.00
51099;BME280;37146;48.210;16.234;2023-01-28T03:14:33;99202.44;;;-2.55;100.00
51099;BME280;37146;48.210;16.234;2023-01-28T03:17:20;99205.03;;;-2.58;100.00
51099;BME280;37146;48.210;16.234;2023-01-28T03:20:07;99204.16;;;-2.56;100.00
51099;BME280;37146;48.210;16.234;2023-01-28T03:22:52;99210.25;;;-2.57;100.00
51099;BME280;37146;48.210;16.234;2023-01-28T03:25:37;99205.06;;;-2.51;100.00
51099;BME280;37146;48.210;16.234;2023-01-28T03:28:23;99207.66;;;-2.52;100.00
51099;BME280;37146;48.210;16.234;2023-01-28T03:31:09;99207.66;;;-2.57;100.00
51099;BME280;37146;48.210;16.234;2023-01-28T03:33:53;99215.53;;;-2.55;100.00
51099;BME280;37146;48.210;16.234;2023-01-28T03:36:37;99219.00;;;-2.53;100.00
51099;BME280;37146;48.210;16.234;2023-01-28T03:39:18;99212.91;;;-2.52;100.00
51099;BME280;37146;48.210;16.234;2023-01-28T03:42:02;99210.31;;;-2.49;100.00
51099;BME280;37146;48.210;16.234;2023-01-28T03:44:28;99210.28;;;-2.54;100.00
51099;BME280;37146;48.210;16.234;2023-01-28T03:47:12;99211.16;;;-2.50;100.00
51099;BME280;37146;48.210;16.234;2023-01-28T03:49:44;99216.41;;;-2.52;100.00
51099;BME280;37146;48.210;16.234;2023-01-28T03:52:10;99212.88;;;-2.58;100.00
51099;BME280;37146;48.210;16.234;2023-01-28T03:54:36;99208.53;;;-2.56;100.00
51099;BME280;37146;48.210;16.234;2023-01-28T03:57:01;99206.78;;;-2.56;100.00
51099;BME280;37146;48.210;16.234;2023-01-28T03:59:27;99214.59;;;-2.67;100.00
51099;BME280;37146;48.210;16.234;2023-01-28T04:01:52;99212.91;;;-2.60;100.00
51099;BME280;37146;48.210;16.234;2023-01-28T04:04:17;99216.38;;;-2.61;100.00
51099;BME280;37146;48.210;16.234;2023-01-28T04:06:51;99210.28;;;-2.60;100.00
51099;BME280;37146;48.210;16.234;2023-01-28T04:09:17;99206.81;;;-2.50;100.00
51099;BME280;37146;48.210;16.234;2023-01-28T04:11:42;99212.03;;;-2.54;100.00
51099;BME280;37146;48.210;16.234;2023-01-28T04:14:07;99227.72;;;-2.56;100.00
51099;BME280;37146;48.210;16.234;2023-01-28T04:16:33;99222.47;;;-2.60;100.00
51099;BME280;37146;48.210;16.234;2023-01-28T04:18:58;99225.13;;;-2.56;100.00
51099;BME280;37146;48.210;16.234;2023-01-28T04:21:23;99223.34;;;-2.65;100.00
51099;BME280;37146;48.210;16.234;2023-01-28T04:23:48;99219.00;;;-2.56;100.00
51099;BME280;37146;48.210;16.234;2023-01-28T04:26:13;99224.19;;;-2.69;100.00
51099;BME280;37146;48.210;16.234;2023-01-28T04:28:39;99221.63;;;-2.61;100.00
51099;BME280;37146;48.210;16.234;2023-01-28T04:31:04;99218.94;;;-2.70;100.00
51099;BME280;37146;48.210;16.234;2023-01-28T04:33:29;99213.78;;;-2.56;100.00
51099;BME280;37146;48.210;16.234;2023-01-28T04:35:54;99219.00;;;-2.61;100.00
51099;BME280;37146;48.210;16.234;2023-01-28T04:38:20;99224.19;;;-2.70;100.00
51099;BME280;37146;48.210;16.234;2023-01-28T04:40:48;99225.97;;;-2.61;100.00
51099;BME280;37146;48.210;16.234;2023-01-28T04:43:13;99221.59;;;-2.59;100.00
51099;BME280;37146;48.210;16.234;2023-01-28T04:45:38;99222.44;;;-2.65;100.00
51099;BME280;37146;48.210;16.234;2023-01-28T04:48:03;99234.72;;;-2.56;100.00
51099;BME280;37146;48.210;16.234;2023-01-28T04:50:29;99238.13;;;-2.68;100.00
51099;BME280;37146;48.210;16.234;2023-01-28T04:52:54;99231.19;;;-2.65;100.00
51099;BME280;37146;48.210;16.234;2023-01-28T04:55:19;99233.75;;;-2.69;100.00
51099;BME280;37146;48.210;16.234;2023-01-28T04:57:45;99231.19;;;-2.63;100.00
51099;BME280;37146;48.210;16.234;2023-01-28T05:00:10;99236.44;;;-2.57;100.00
51099;BME280;37146;48.210;16.234;2023-01-28T05:02:36;99237.31;;;-2.59;100.00
51099;BME280;37146;48.210;16.234;2023-01-28T05:05:01;99237.25;;;-2.73;100.00
51099;BME280;37146;48.210;16.234;2023-01-28T05:07:28;99241.63;;;-2.69;100.00
51099;BME280;37146;48.210;16.234;2023-01-28T05:09:54;99245.16;;;-2.62;100.00
51099;BME280;37146;48.210;16.234;2023-01-28T05:12:19;99234.69;;;-2.62;100.00
51099;BME280;37146;48.210;16.234;2023-01-28T05:14:44;99234.69;;;-2.66;100.00
51099;BME280;37146;48.210;16.234;2023-01-28T05:17:10;99238.22;;;-2.51;100.00
51099;BME280;37146;48.210;16.234;2023-01-28T05:19:35;99246.91;;;-2.61;100.00
51099;BME280;37146;48.210;16.234;2023-01-28T05:22:00;99240.78;;;-2.64;100.00
51099;BME280;37146;48.210;16.234;2023-01-28T05:24:25;99246.91;;;-2.61;100.00
51099;BME280;37146;48.210;16.234;2023-01-28T05:26:50;99257.41;;;-2.60;100.00
51099;BME280;37146;48.210;16.234;2023-01-28T05:29:16;99257.38;;;-2.61;100.00
51099;BME280;37146;48.210;16.234;2023-01-28T05:31:41;99253.00;;;-2.66;100.00
51099;BME280;37146;48.210;16.234;2023-01-28T05:34:06;99256.53;;;-2.57;100.00
51099;BME280;37146;48.210;16.234;2023-01-28T05:36:32;99255.63;;;-2.66;100.00
51099;BME280;37146;48.210;16.234;2023-01-28T05:38:57;99258.25;;;-2.64;100.00
51099;BME280;37146;48.210;16.234;2023-01-28T05:41:22;99259.13;;;-2.60;100.00
51099;BME280;37146;48.210;16.234;2023-01-28T05:43:48;99258.28;;;-2.61;100.00
51099;BME280;37146;48.210;16.234;2023-01-28T05:46:13;99253.88;;;-2.64;100.00
51099;BME280;37146;48.210;16.234;2023-01-28T05:48:38;99255.63;;;-2.66;100.00
51099;BME280;37146;48.210;16.234;2023-01-28T05:51:03;99260.91;;;-2.61;100.00
51099;BME280;37146;48.210;16.234;2023-01-28T05:53:29;99266.94;;;-2.70;100.00
51099;BME280;37146;48.210;16.234;2023-01-28T05:55:54;99261.75;;;-2.60;100.00
51099;BME280;37146;48.210;16.234;2023-01-28T05:58:20;99257.44;;;-2.55;100.00
51099;BME280;37146;48.210;16.234;2023-01-28T06:00:45;99269.59;;;-2.59;100.00
51099;BME280;37146;48.210;16.234;2023-01-28T06:03:10;99264.34;;;-2.64;100.00
51099;BME280;37146;48.210;16.234;2023-01-28T06:05:36;99261.75;;;-2.60;100.00
51099;BME280;37146;48.210;16.234;2023-01-28T06:08:01;99268.75;;;-2.53;100.00
51099;BME280;37146;48.210;16.234;2023-01-28T06:10:26;99265.25;;;-2.63;100.00
51099;BME280;37146;48.210;16.234;2023-01-28T06:12:52;99264.38;;;-2.59;100.00
51099;BME280;37146;48.210;16.234;2023-01-28T06:15:17;99265.25;;;-2.65;100.00
51099;BME280;37146;48.210;16.234;2023-01-28T06:17:42;99266.16;;;-2.56;100.00
51099;BME280;37146;48.210;16.234;2023-01-28T06:20:07;99273.97;;;-2.64;100.00
51099;BME280;37146;48.210;16.234;2023-01-28T06:22:33;99272.19;;;-2.64;100.00
51099;BME280;37146;48.210;16.234;2023-01-28T06:24:58;99269.66;;;-2.54;100.00
51099;BME280;37146;48.210;16.234;2023-01-28T06:27:23;99284.47;;;-2.55;100.00
51099;BME280;37146;48.210;16.234;2023-01-28T06:29:49;99288.88;;;-2.47;100.00
51099;BME280;37146;48.210;16.234;2023-01-28T06:32:14;99289.75;;;-2.52;100.00
51099;BME280;37146;48.210;16.234;2023-01-28T06:34:39;99289.75;;;-2.47;100.00
51099;BME280;37146;48.210;16.234;2023-01-28T06:37:05;99286.22;;;-2.57;100.00
51099;BME280;37146;48.210;16.234;2023-01-28T06:39:30;99287.16;;;-2.47;100.00
51099;BME280;37146;48.210;16.234;2023-01-28T06:41:58;99289.75;;;-2.45;100.00
51099;BME280;37146;48.210;16.234;2023-01-28T06:44:24;99295.88;;;-2.42;100.00
51099;BME280;37146;48.210;16.234;2023-01-28T06:46:49;99300.22;;;-2.50;100.00
51099;BME280;37146;48.210;16.234;2023-01-28T06:49:14;99300.28;;;-2.44;100.00
51099;BME280;37146;48.210;16.234;2023-01-28T06:51:39;99305.47;;;-2.49;100.00
51099;BME280;37146;48.210;16.234;2023-01-28T06:54:04;99308.16;;;-2.39;100.00
51099;BME280;37146;48.210;16.234;2023-01-28T06:56:30;99309.88;;;-2.40;100.00
51099;BME280;37146;48.210;16.234;2023-01-28T06:58:55;99310.75;;;-2.41;100.00
51099;BME280;37146;48.210;16.234;2023-01-28T07:01:20;99309.91;;;-2.38;100.00
51099;BME280;37146;48.210;16.234;2023-01-28T07:03:45;99317.75;;;-2.37;100.00
51099;BME280;37146;48.210;16.234;2023-01-28T07:06:11;99317.75;;;-2.38;100.00
51099;BME280;37146;48.210;16.234;2023-01-28T07:08:36;99313.38;;;-2.42;100.00
51099;BME280;37146;48.210;16.234;2023-01-28T07:11:02;99310.75;;;-2.42;100.00
51099;BME280;37146;48.210;16.234;2023-01-28T07:13:28;99314.22;;;-2.43;100.00
51099;BME280;37146;48.210;16.234;2023-01-28T07:15:53;99315.97;;;-2.45;100.00
51099;BME280;37146;48.210;16.234;2023-01-28T07:18:19;99317.75;;;-2.38;100.00
51099;BME280;37146;48.210;16.234;2023-01-28T07:20:45;99308.16;;;-2.36;100.00
51099;BME280;37146;48.210;16.234;2023-01-28T07:23:13;99310.81;;;-2.30;100.00
51099;BME280;37146;48.210;16.234;2023-01-28T07:25:39;99313.34;;;-2.41;100.00
51099;BME280;37146;48.210;16.234;2023-01-28T07:28:04;99307.28;;;-2.35;100.00
51099;BME280;37146;48.210;16.234;2023-01-28T07:30:29;99315.13;;;-2.35;100.00
51099;BME280;37146;48.210;16.234;2023-01-28T07:32:55;99315.16;;;-2.30;100.00
51099;BME280;37146;48.210;16.234;2023-01-28T07:35:21;99321.28;;;-2.28;100.00
51099;BME280;37146;48.210;16.234;2023-01-28T07:37:50;99309.94;;;-2.27;100.00
51099;BME280;37146;48.210;16.234;2023-01-28T07:40:15;99316.94;;;-2.25;100.00
51099;BME280;37146;48.210;16.234;2023-01-28T07:42:40;99314.31;;;-2.28;100.00
51099;BME280;37146;48.210;16.234;2023-01-28T07:45:06;99323.06;;;-2.29;100.00
51099;BME280;37146;48.210;16.234;2023-01-28T07:47:31;99332.66;;;-2.33;100.00
51099;BME280;37146;48.210;16.234;2023-01-28T07:49:57;99311.72;;;-2.20;100.00
51099;BME280;37146;48.210;16.234;2023-01-28T07:52:22;99325.66;;;-2.27;100.00
51099;BME280;37146;48.210;16.234;2023-01-28T07:54:48;99327.41;;;-2.26;100.00
51099;BME280;37146;48.210;16.234;2023-01-28T07:57:13;99332.69;;;-2.20;100.00
51099;BME280;37146;48.210;16.234;2023-01-28T07:59:38;99332.75;;;-2.11;100.00
51099;BME280;37146;48.210;16.234;2023-01-28T08:02:03;99325.72;;;-2.13;100.00
51099;BME280;37146;48.210;16.234;2023-01-28T08:04:28;99339.72;;;-2.13;100.00
51099;BME280;37146;48.210;16.234;2023-01-28T08:06:54;99338.00;;;-2.11;100.00
51099;BME280;37146;48.210;16.234;2023-01-28T08:09:19;99341.44;;;-2.18;100.00
51099;BME280;37146;48.210;16.234;2023-01-28T08:11:44;99343.25;;;-2.05;100.00
51099;BME280;37146;48.210;16.234;2023-01-28T08:14:09;99339.78;;;-1.97;100.00
51099;BME280;37146;48.210;16.234;2023-01-28T08:16:35;99353.75;;;-2.02;100.00
51099;BME280;37146;48.210;16.234;2023-01-28T08:19:00;99353.72;;;-2.03;100.00
51099;BME280;37146;48.210;16.234;2023-01-28T08:21:25;99355.47;;;-2.07;100.00
51099;BME280;37146;48.210;16.234;2023-01-28T08:23:50;99345.00;;;-2.10;100.00
51099;BME280;37146;48.210;16.234;2023-01-28T08:26:16;99354.63;;;-2.01;100.00
51099;BME280;37146;48.210;16.234;2023-01-28T08:28:41;99362.50;;;-2.03;100.00
51099;BME280;37146;48.210;16.234;2023-01-28T08:31:08;99356.34;;;-2.03;100.00
51099;BME280;37146;48.210;16.234;2023-01-28T08:33:33;99374.75;;;-1.98;100.00
51099;BME280;37146;48.210;16.234;2023-01-28T08:36:01;99360.78;;;-1.94;100.00
51099;BME280;37146;48.210;16.234;2023-01-28T08:38:26;99359.91;;;-1.92;100.00
51099;BME280;37146;48.210;16.234;2023-01-28T08:40:51;99367.78;;;-1.87;100.00
51099;BME280;37146;48.210;16.234;2023-01-28T08:43:20;99373.88;;;-1.93;100.00
51099;BME280;37146;48.210;16.234;2023-01-28T08:45:45;99367.75;;;-1.98;100.00
51099;BME280;37146;48.210;16.234;2023-01-28T08:48:11;99373.88;;;-1.96;100.00
51099;BME280;37146;48.210;16.234;2023-01-28T08:50:38;99373.00;;;-1.93;100.00
51099;BME280;37146;48.210;16.234;2023-01-28T08:53:05;99376.50;;;-1.96;100.00
51099;BME280;37146;48.210;16.234;2023-01-28T08:55:30;99381.75;;;-1.91;100.00
51099;BME280;37146;48.210;16.234;2023-01-28T08:57:57;99382.59;;;-1.95;100.00
51099;BME280;37146;48.210;16.234;2023-01-28T09:00:25;99390.50;;;-1.86;100.00
51099;BME280;37146;48.210;16.234;2023-01-28T09:02:51;99389.63;;;-1.91;100.00
51099;BME280;37146;48.210;16.234;2023-01-28T09:05:17;99387.03;;;-1.85;100.00
51099;BME280;37146;48.210;16.234;2023-01-28T09:07:42;99382.66;;;-1.86;100.00
51099;BME280;37146;48.210;16.234;2023-01-28T09:10:08;99378.31;;;-1.81;100.00
51099;BME280;37146;48.210;16.234;2023-01-28T09:12:33;99381.81;;;-1.76;100.00
51099;BME280;37146;48.210;16.234;2023-01-28T09:14:58;99394.03;;;-1.79;100.00
51099;BME280;37146;48.210;16.234;2023-01-28T09:17:23;99384.44;;;-1.77;100.00
51099;BME280;37146;48.210;16.234;2023-01-28T09:19:49;99387.03;;;-1.82;100.00
51099;BME280;37146;48.210;16.234;2023-01-28T09:22:15;99389.69;;;-1.77;100.00
51099;BME280;37146;48.210;16.234;2023-01-28T09:24:40;99391.44;;;-1.76;100.00
51099;BME280;37146;48.210;16.234;2023-01-28T09:27:05;99389.66;;;-1.82;100.00
51099;BME280;37146;48.210;16.234;2023-01-28T09:29:32;99398.44;;;-1.77;100.00
51099;BME280;37146;48.210;16.234;2023-01-28T09:31:57;99407.19;;;-1.73;100.00
51099;BME280;37146;48.210;16.234;2023-01-28T09:34:23;99401.06;;;-1.77;100.00
51099;BME280;37146;48.210;16.234;2023-01-28T09:36:48;99399.28;;;-1.79;100.00
51099;BME280;37146;48.210;16.234;2023-01-28T09:39:13;99406.31;;;-1.74;100.00
51099;BME280;37146;48.210;16.234;2023-01-28T09:46:47;99404.63;;;-1.65;100.00
51099;BME280;37146;48.210;16.234;2023-01-28T09:49:28;99400.25;;;-1.54;100.00
51099;BME280;37146;48.210;16.234;2023-01-28T09:51:56;99400.25;;;-1.59;100.00
51099;BME280;37146;48.210;16.234;2023-01-28T09:56:50;99409.00;;;-1.63;100.00
51099;BME280;37146;48.210;16.234;2023-01-28T09:59:18;99406.38;;;-1.58;100.00
51099;BME280;37146;48.210;16.234;2023-01-28T10:01:50;99416.03;;;-1.52;100.00
51099;BME280;37146;48.210;16.234;2023-01-28T10:04:41;99407.31;;;-1.47;100.00
51099;BME280;37146;48.210;16.234;2023-01-28T10:07:08;99402.94;;;-1.37;100.00
51099;BME280;37146;48.210;16.234;2023-01-28T10:09:45;99402.94;;;-1.42;100.00
51099;BME280;37146;48.210;16.234;2023-01-28T10:12:15;99404.69;;;-1.37;100.00
51099;BME280;37146;48.210;16.234;2023-01-28T10:17:23;99394.22;;;-1.34;100.00
51099;BME280;37146;48.210;16.234;2023-01-28T10:19:52;99395.06;;;-1.37;100.00
51099;BME280;37146;48.210;16.234;2023-01-28T10:22:18;99395.97;;;-1.30;100.00
51099;BME280;37146;48.210;16.234;2023-01-28T10:24:59;99388.13;;;-1.19;100.00
51099;BME280;37146;48.210;16.234;2023-01-28T10:27:30;99389.00;;;-1.19;100.00
51099;BME280;37146;48.210;16.234;2023-01-28T10:29:56;99385.47;;;-1.21;100.00
51099;BME280;37146;48.210;16.234;2023-01-28T10:32:27;99395.97;;;-1.27;100.00
51099;BME280;37146;48.210;16.234;2023-01-28T10:34:54;99394.22;;;-1.27;100.00
51099;BME280;37146;48.210;16.234;2023-01-28T10:37:20;99392.47;;;-1.31;100.00
51099;BME280;37146;48.210;16.234;2023-01-28T10:39:46;99388.09;;;-1.33;100.00
51099;BME280;37146;48.210;16.234;2023-01-28T10:42:33;99396.84;;;-1.30;100.00
51099;BME280;37146;48.210;16.234;2023-01-28T10:45:17;99387.22;;;-1.29;100.00
51099;BME280;37146;48.210;16.234;2023-01-28T10:47:53;99389.00;;;-1.22;100.00
51099;BME280;37146;48.210;16.234;2023-01-28T10:50:24;99395.97;;;-1.26;100.00
51099;BME280;37146;48.210;16.234;2023-01-28T10:52:59;99391.59;;;-1.30;100.00
51099;BME280;37146;48.210;16.234;2023-01-28T10:55:26;99389.88;;;-1.14;100.00
51099;BME280;37146;48.210;16.234;2023-01-28T10:57:52;99389.84;;;-1.32;100.00
51099;BME280;37146;48.210;16.234;2023-01-28T11:02:44;99394.25;;;-1.17;100.00
51099;BME280;37146;48.210;16.234;2023-01-28T11:05:16;99391.59;;;-1.23;100.00
51099;BME280;37146;48.210;16.234;2023-01-28T11:07:42;99381.13;;;-1.22;100.00
51099;BME280;37146;48.210;16.234;2023-01-28T11:13:05;99389.88;;;-1.18;100.00
51099;BME280;37146;48.210;16.234;2023-01-28T11:15:39;99382.91;;;-1.12;100.00
51099;BME280;37146;48.210;16.234;2023-01-28T11:18:14;99392.50;;;-1.07;100.00
51099;BME280;37146;48.210;16.234;2023-01-28T11:20:41;99386.41;;;-1.00;100.00
51099;BME280;37146;48.210;16.234;2023-01-28T11:23:28;99379.38;;;-1.12;100.00
51099;BME280;37146;48.210;16.234;2023-01-28T11:25:58;99383.78;;;-1.05;100.00
51099;BME280;37146;48.210;16.234;2023-01-28T11:28:24;99378.50;;;-1.17;100.00
51099;BME280;37146;48.210;16.234;2023-01-28T11:30:50;99383.75;;;-1.10;100.00
51099;BME280;37146;48.210;16.234;2023-01-28T11:33:20;99390.78;;;-1.02;100.00
51099;BME280;37146;48.210;16.234;2023-01-28T11:35:53;99391.66;;;-1.08;100.00
51099;BME280;37146;48.210;16.234;2023-01-28T11:38:20;99387.25;;;-1.03;100.00
51099;BME280;37146;48.210;16.234;2023-01-28T11:40:52;99378.53;;;-1.03;100.00
51099;BME280;37146;48.210;16.234;2023-01-28T11:43:28;99384.63;;;-1.14;100.00
51099;BME280;37146;48.210;16.234;2023-01-28T11:46:00;99389.91;;;-1.09;100.00
51099;BME280;37146;48.210;16.234;2023-01-28T11:48:30;99376.75;;;-1.21;100.00
51099;BME280;37146;48.210;16.234;2023-01-28T11:51:02;99390.72;;;-1.26;100.00
51099;BME280;37146;48.210;16.234;2023-01-28T11:55:58;99388.09;;;-1.21;100.00
51099;BME280;37146;48.210;16.234;2023-01-28T11:59:13;99370.59;;;-1.28;100.00
51099;BME280;37146;48.210;16.234;2023-01-28T12:01:20;99388.97;;;-1.27;100.00
51099;BME280;37146;48.210;16.234;2023-01-28T12:11:36;99385.50;;;-1.29;100.00
51099;BME280;37146;48.210;16.234;2023-01-28T12:14:26;99380.25;;;-1.15;100.00
51099;BME280;37146;48.210;16.234;2023-01-28T12:17:18;99380.28;;;-1.12;100.00
51099;BME280;37146;48.210;16.234;2023-01-28T12:24:48;99384.63;;;-1.12;100.00
51099;BME280;37146;48.210;16.234;2023-01-28T12:27:30;99382.91;;;-1.07;100.00
51099;BME280;37146;48.210;16.234;2023-01-28T12:32:52;99394.28;;;-1.00;100.00
51099;BME280;37146;48.210;16.234;2023-01-28T12:35:34;99398.66;;;-1.05;100.00
51099;BME280;37146;48.210;16.234;2023-01-28T12:38:13;99391.66;;;-1.03;100.00
51099;BME280;37146;48.210;16.234;2023-01-28T12:43:25;99400.41;;;-1.04;100.00
51099;BME280;37146;48.210;16.234;2023-01-28T12:45:59;99400.38;;;-1.07;100.00
51099;BME280;37146;48.210;16.234;2023-01-28T12:48:31;99394.28;;;-1.03;100.00
51099;BME280;37146;48.210;16.234;2023-01-28T12:51:13;99404.78;;;-1.00;100.00
51099;BME280;37146;48.210;16.234;2023-01-28T12:53:41;99396.00;;;-1.09;100.00
51099;BME280;37146;48.210;16.234;2023-01-28T12:56:16;99399.53;;;-1.02;100.00
51099;BME280;37146;48.210;16.234;2023-01-28T12:58:56;99404.75;;;-1.16;100.00
51099;BME280;37146;48.210;16.234;2023-01-28T13:01:24;99406.53;;;-1.12;100.00
51099;BME280;37146;48.210;16.234;2023-01-28T13:03:57;99413.50;;;-1.23;100.00
51099;BME280;37146;48.210;16.234;2023-01-28T13:06:32;99410.00;;;-1.19;100.00
51099;BME280;37146;48.210;16.234;2023-01-28T13:08:59;99410.84;;;-1.25;100.00
51099;BME280;37146;48.210;16.234;2023-01-28T13:11:29;99402.97;;;-1.20;100.00
51099;BME280;37146;48.210;16.234;2023-01-28T13:13:57;99412.63;;;-1.16;100.00
51099;BME280;37146;48.210;16.234;2023-01-28T13:16:22;99418.75;;;-1.17;100.00
51099;BME280;37146;48.210;16.234;2023-01-28T13:18:47;99410.88;;;-1.18;100.00
51099;BME280;37146;48.210;16.234;2023-01-28T13:21:28;99413.50;;;-1.23;100.00
51099;BME280;37146;48.210;16.234;2023-01-28T13:24:04;99403.88;;;-1.10;100.00
51099;BME280;37146;48.210;16.234;2023-01-28T13:31:43;99420.50;;;-1.14;100.00
51099;BME280;37146;48.210;16.234;2023-01-28T13:34:13;99420.50;;;-1.16;100.00
51099;BME280;37146;48.210;16.234;2023-01-28T13:36:49;99422.25;;;-1.18;100.00
51099;BME280;37146;48.210;16.234;2023-01-28T13:39:20;99431.03;;;-1.13;100.00
51099;BME280;37146;48.210;16.234;2023-01-28T13:41:46;99429.28;;;-1.06;100.00